createdAt,value
2023-03-11T00:04:10.555Z,76.9
2023-03-11T00:24:10.544Z,76.91
2023-03-11T00:44:10.059Z,76.91
2023-03-11T01:04:10.447Z,76.91
2023-03-11T01:24:09.814Z,76.92
2023-03-11T01:44:10.612Z,76.92
2023-03-11T02:04:10.596Z,76.91
2023-03-11T02:24:10.619Z,76.91
2023-03-11T02:44:10.628Z,76.91
2023-03-11T03:04:10.656Z,76.92
2023-03-11T03:24:10.654Z,76.91
2023-03-11T03:44:10.652Z,76.92
2023-03-11T04:04:09.893Z,76.94
2023-03-11T04:24:10.728Z,76.93
2023-03-11T04:44:10.693Z,76.93
2023-03-11T05:04:10.712Z,76.93
2023-03-11T05:24:09.945Z,76.94
2023-03-11T05:44:10.733Z,76.94
2023-03-11T06:04:10.350Z,76.93
2023-03-11T06:24:10.743Z,76.94
2023-03-11T06:44:10.770Z,76.94
2023-03-11T07:04:09.708Z,76.94
2023-03-11T07:24:10.296Z,76.95
2023-03-11T07:44:10.035Z,76.96
2023-03-11T08:04:12.962Z,76.96
2023-03-11T08:24:10.720Z,76.97
2023-03-11T08:44:10.806Z,76.99
2023-03-11T09:04:10.815Z,76.98
2023-03-11T09:24:10.277Z,76.97
2023-03-11T09:44:10.778Z,76.98
2023-03-11T10:04:10.768Z,76.98
2023-03-11T10:24:10.749Z,76.99
2023-03-11T10:44:10.750Z,76.99
2023-03-11T11:04:10.226Z,77
2023-03-11T11:24:10.266Z,77
2023-03-11T11:44:10.700Z,77
2023-03-11T12:04:10.673Z,77.01
2023-03-11T12:24:10.659Z,77
2023-03-11T12:44:10.697Z,77.01
2023-03-11T13:04:10.668Z,77
2023-03-11T13:24:10.622Z,77.01
2023-03-11T13:44:10.603Z,77
2023-03-11T14:04:10.650Z,77.01
2023-03-11T14:24:10.560Z,77.01
2023-03-11T14:44:10.538Z,77.02
2023-03-11T15:04:10.021Z,77.02
2023-03-11T15:24:10.503Z,77.03
2023-03-11T15:44:10.489Z,77.03
2023-03-11T16:04:10.601Z,77.03
2023-03-11T16:24:09.936Z,77.04
2023-03-11T16:44:10.497Z,77.04
2023-03-11T17:04:10.473Z,77.04
2023-03-11T17:24:10.327Z,77.04
2023-03-11T17:44:10.331Z,77.05
2023-03-11T18:04:10.577Z,77.05
2023-03-11T18:24:10.353Z,77.04
2023-03-11T18:44:10.496Z,77.05
2023-03-11T19:04:10.511Z,77.05
2023-03-11T19:24:10.556Z,77.07
2023-03-11T19:44:10.426Z,77.06
2023-03-11T20:04:09.527Z,77.06
2023-03-11T20:24:10.589Z,77.06
2023-03-11T21:04:10.611Z,77.08
2023-03-11T21:44:10.733Z,77.07
2023-03-11T22:04:10.727Z,77.08
2023-03-11T23:04:10.020Z,77.08
2023-03-11T23:24:09.948Z,77.08
2023-03-11T23:44:10.735Z,77.09
